CheckWX is a tool to help pilots better visualize weather data.  It is not intended as a substitute for an official pre-flight weather briefing.

11:40:26 UTC

KCEF METAR
Westover ARB / Metropolitan Airport
Springfield/Chicopee, Massachusetts, USA
Current

44 mins ago

KCEF 241056Z AUTO 00000KT 10SM CLR M06/M08 A3003 RMK AO2 SLP178 T10641076
Observed
Feb-24 @ 10:56 UTC
Visibility
10 SM
Flight Rules
VFR
Cloud Levels
  • Clear skies
Temperature
-6°C / 21°F
Dewpoint
-8°C / 18°F
Humidity
86%
Altimeter
30.03" Hg
Pressure
1016.92 hPa
Previous

2 hours ago

KCEF 240956Z AUTO 04003KT 10SM CLR M06/M08 A3003 RMK AO2 SLP177 T10641079
Observed
Feb-24 @ 09:56 UTC
Wind
  • 040° at 3 KTS
Visibility
10 SM
Flight Rules
VFR
Cloud Levels
  • Clear skies
Temperature
-6°C / 21°F
Dewpoint
-8°C / 18°F
Humidity
86%
Altimeter
30.03" Hg
Pressure
1016.92 hPa
Previous

3 hours ago

KCEF 240856Z AUTO 00000KT 10SM CLR M06/M08 A3003 RMK AO2 SLP177 T10621077 57008
Observed
Feb-24 @ 08:56 UTC
Visibility
10 SM
Flight Rules
VFR
Cloud Levels
  • Clear skies
Temperature
-6°C / 21°F
Dewpoint
-8°C / 18°F
Humidity
86%
Altimeter
30.03" Hg
Pressure
1016.92 hPa